createdAt,value
2023-03-18T00:18:38.158Z,89.62
2023-03-18T00:21:57.909Z,89.88
2023-03-18T00:24:32.062Z,89.96
2023-03-18T00:27:02.509Z,90.01
2023-03-18T00:29:30.501Z,90.47
2023-03-18T00:32:04.207Z,90.56
2023-03-18T00:34:51.209Z,90.71
2023-03-18T00:37:31.121Z,91.09
2023-03-18T00:40:07.210Z,91.32
2023-03-18T00:43:08.125Z,91.41
2023-03-18T00:46:00.704Z,91.30
2023-03-18T00:52:25.526Z,90.65
2023-03-18T00:56:52.853Z,91.33
2023-03-18T00:59:30.589Z,91.21
2023-03-18T01:02:25.421Z,91.03
2023-03-18T01:05:29.051Z,91.05
2023-03-18T01:11:04.253Z,90.25
2023-03-18T01:15:32.347Z,90.04
2023-03-18T01:29:27.919Z,89.97
2023-03-18T01:32:35.002Z,89.90
2023-03-18T01:59:56.097Z,90.05
2023-03-18T02:10:13.502Z,90.63
2023-03-18T02:13:37.667Z,90.39
2023-03-18T02:17:19.013Z,90.45
2023-03-18T02:31:59.399Z,89.93
2023-03-18T02:34:52.078Z,89.59
2023-03-18T02:37:38.204Z,89.34
2023-03-18T02:40:50.663Z,89.76
2023-03-18T02:43:32.828Z,89.85
2023-03-18T02:46:44.747Z,90.19
2023-03-18T02:50:13.157Z,89.80
2023-03-18T02:52:57.332Z,89.28
2023-03-18T02:55:48.039Z,89.46
2023-03-18T02:58:19.685Z,89.80
2023-03-18T03:00:49.496Z,89.99
2023-03-18T03:03:18.721Z,90.13
2023-03-18T03:05:53.315Z,90.60
2023-03-18T03:08:25.005Z,90.92
2023-03-18T03:10:54.933Z,90.54
2023-03-18T03:13:27.134Z,90.60
2023-03-18T03:15:58.109Z,90.64
2023-03-18T03:18:27.059Z,90.79
2023-03-18T03:20:58.303Z,90.72
2023-03-18T03:23:28.135Z,90.84
2023-03-18T03:26:04.070Z,91.03
2023-03-18T03:28:56.612Z,91.11
2023-03-18T03:31:41.376Z,91.04
2023-03-18T03:44:44.015Z,90.78
2023-03-18T03:47:24.514Z,90.64
2023-03-18T03:50:18.643Z,90.78
2023-03-18T03:53:18.504Z,91.30
2023-03-18T03:58:47.333Z,91.47
2023-03-18T04:01:29.782Z,91.42
2023-03-18T04:04:03.268Z,91.52
2023-03-18T04:06:34.605Z,91.06
2023-03-18T04:12:45.228Z,90.26
2023-03-18T04:15:32.199Z,90.41
2023-03-18T04:18:13.006Z,90.36
2023-03-18T04:21:05.574Z,90.48
2023-03-18T04:23:53.573Z,90.61
2023-03-18T04:29:52.030Z,90.12
2023-03-18T04:32:47.918Z,89.98
2023-03-18T04:35:54.255Z,90.49
2023-03-18T04:38:25.746Z,90.51
2023-03-18T04:41:04.626Z,90.50
2023-03-18T04:43:56.463Z,90.68
2023-03-18T04:46:34.325Z,90.87
2023-03-18T04:49:05.096Z,90.64
2023-03-18T04:51:34.119Z,90.88
2023-03-18T04:54:22.669Z,90.74
2023-03-18T04:56:53.515Z,90.37
2023-03-18T04:59:28.814Z,89.91
2023-03-18T05:01:58.612Z,89.83
2023-03-18T05:06:01.007Z,89.62
2023-03-18T05:09:08.960Z,90.05
2023-03-18T05:11:49.801Z,90.12
2023-03-18T05:14:44.223Z,90.17
2023-03-18T05:17:59.983Z,90.24
2023-03-18T05:20:38.339Z,90.25
2023-03-18T05:23:44.532Z,90.04
2023-03-18T05:26:24.188Z,90.05
2023-03-18T05:29:00.583Z,89.96
2023-03-18T05:39:55.019Z,89.44
2023-03-18T05:42:27.821Z,89.13
2023-03-18T05:45:02.408Z,88.74
2023-03-18T05:47:38.085Z,89.05
2023-03-18T05:50:14.172Z,89.35
2023-03-18T05:52:44.899Z,89.02
2023-03-18T05:55:20.802Z,89.15
2023-03-18T05:57:50.840Z,88.96
2023-03-18T06:00:20.321Z,88.85
2023-03-18T06:02:51.096Z,88.86
2023-03-18T06:05:21.561Z,88.90
2023-03-18T06:07:50.405Z,88.55
2023-03-18T06:10:19.881Z,88.71
2023-03-18T06:12:51.707Z,88.70
2023-03-18T06:15:23.833Z,89.00
2023-03-18T06:17:54.510Z,89.06
2023-03-18T06:32:10.818Z,88.88
2023-03-18T06:58:45.085Z,86.83
2023-03-18T17:34:03.763Z,78.32
2023-03-18T18:16:08.876Z,78.75
2023-03-18T18:18:41.411Z,78.53
2023-03-18T18:24:37.174Z,78.59
2023-03-18T18:27:19.949Z,78.59
2023-03-18T18:33:42.676Z,78.72
2023-03-18T18:47:50.113Z,78.41
2023-03-18T18:50:38.113Z,78.43
2023-03-18T19:15:47.457Z,78.05
2023-03-18T19:36:54.005Z,78.43
2023-03-18T19:39:40.914Z,78.20
2023-03-18T20:06:32.718Z,78.04
2023-03-18T20:44:22.146Z,77.28
2023-03-18T20:53:52.984Z,77.28
2023-03-18T20:56:53.943Z,77.23
2023-03-18T20:59:27.409Z,77.22
2023-03-18T21:01:56.333Z,77.33
2023-03-18T21:04:27.392Z,77.28
2023-03-18T21:09:55.961Z,77.56
2023-03-18T21:18:40.566Z,77.76
2023-03-18T21:21:33.009Z,77.98
2023-03-18T21:24:01.954Z,78.20
2023-03-18T21:29:22.710Z,78.53
2023-03-18T21:31:54.176Z,78.46
2023-03-18T21:34:25.719Z,78.53
2023-03-18T21:36:59.488Z,78.36
2023-03-18T21:39:36.561Z,78.17
2023-03-18T21:48:09.255Z,78.07
2023-03-18T21:54:00.132Z,78.13
2023-03-18T21:56:34.017Z,78.38
2023-03-18T21:59:03.462Z,78.30
2023-03-18T22:01:39.209Z,78.18
2023-03-18T22:04:08.600Z,78.31
2023-03-18T22:06:38.794Z,78.30
2023-03-18T22:09:14.708Z,78.28
2023-03-18T22:12:06.684Z,78.21
2023-03-18T22:14:39.357Z,77.98
2023-03-18T22:17:33.519Z,78.17
2023-03-18T22:20:03.419Z,78.20
2023-03-18T22:22:37.004Z,78.55
2023-03-18T22:25:42.612Z,78.40
2023-03-18T22:28:15.218Z,78.92
2023-03-18T22:30:46.525Z,78.84
2023-03-18T22:33:20.407Z,78.87
2023-03-18T22:35:49.123Z,79.22
2023-03-18T22:38:21.738Z,79.17
2023-03-18T22:40:53.387Z,79.17
2023-03-18T22:43:27.967Z,79.23
2023-03-18T22:45:59.034Z,79.09
2023-03-18T22:48:29.654Z,79.43
2023-03-18T22:51:00.112Z,79.70
2023-03-18T22:53:39.762Z,79.89
2023-03-18T22:56:14.065Z,79.88
2023-03-18T22:58:44.073Z,79.83
2023-03-18T23:01:28.882Z,79.68
2023-03-18T23:04:05.392Z,79.90
2023-03-18T23:06:35.514Z,79.73
2023-03-18T23:09:06.260Z,79.68
2023-03-18T23:11:34.937Z,79.60
2023-03-18T23:14:04.934Z,79.58
2023-03-18T23:16:34.083Z,79.63
2023-03-18T23:19:02.813Z,79.90
2023-03-18T23:21:37.577Z,80.09
2023-03-18T23:24:06.652Z,79.97
2023-03-18T23:26:36.964Z,80.11
2023-03-18T23:29:06.879Z,80.06
2023-03-18T23:31:35.803Z,79.99
2023-03-18T23:34:07.997Z,79.92
2023-03-18T23:36:37.651Z,79.74
2023-03-18T23:39:10.645Z,79.56
2023-03-18T23:41:42.825Z,79.54
2023-03-18T23:44:11.530Z,79.54
2023-03-18T23:46:42.483Z,79.48
2023-03-18T23:49:13.992Z,79.40
2023-03-18T23:51:45.275Z,79.88
2023-03-18T23:54:13.960Z,79.91
2023-03-18T23:56:54.823Z,80.08
2023-03-18T23:59:26.196Z,79.81
